Time;durP1;ratioP1;P1;durP2;ratioP2;P2;SDS_P1;SDS_P2;PMS_P1;PMS_P2;Temp;Humidity;BMP_temperature;BMP_pressure;BME280_temperature;BME280_humidity;BME280_pressure;Samples;Min_cycle;Max_cycle;Signal;HPM_P1;HPM_P2
2022/04/28 00:00:07;;;;;;;3.33;1.90;;;;;;;12.35;40.78;99089.16;5072912;28;20131;-89
2022/04/28 00:02:34;;;;;;;3.20;2.10;;;;;;;12.33;41.54;99090.06;5071250;28;20037;-93
2022/04/28 00:04:59;;;;;;;2.92;2.10;;;;;;;12.41;41.12;99092.53;5074605;28;20044;-91
2022/04/28 00:07:25;;;;;;;4.25;2.17;;;;;;;12.38;41.50;99092.59;5074447;28;20090;-91
2022/04/28 00:09:53;;;;;;;3.58;2.00;;;;;;;12.23;42.02;99095.72;5074112;28;20044;-91
2022/04/28 00:12:18;;;;;;;3.65;2.25;;;;;;;12.24;42.34;99097.47;5073992;28;20044;-93
2022/04/28 00:14:44;;;;;;;2.35;1.80;;;;;;;12.05;42.45;99070.47;5073045;28;20049;-92
2022/04/28 00:17:10;;;;;;;3.13;1.90;;;;;;;12.21;41.98;99087.78;5073490;28;20402;-91
2022/04/28 00:19:36;;;;;;;6.22;2.10;;;;;;;12.18;42.17;99093.19;5072760;28;20490;-92
2022/04/28 00:22:02;;;;;;;3.08;2.10;;;;;;;12.27;41.71;99084.03;5073879;28;20127;-90
2022/04/28 00:24:28;;;;;;;2.97;2.00;;;;;;;12.22;41.73;99076.19;5074552;28;20063;-91
2022/04/28 00:26:55;;;;;;;3.97;2.10;;;;;;;12.11;42.21;99076.50;5073632;28;20454;-91
2022/04/28 00:29:21;;;;;;;4.30;2.08;;;;;;;12.12;42.75;99094.25;5071520;28;20132;-93
2022/04/28 00:31:47;;;;;;;2.97;1.95;;;;;;;12.08;42.79;99078.38;5074003;28;20397;-93
2022/04/28 00:34:13;;;;;;;2.83;2.00;;;;;;;12.06;43.69;99099.75;5073100;28;20044;-94
2022/04/28 00:36:39;;;;;;;3.33;2.00;;;;;;;11.98;44.27;99099.06;5073134;28;20048;-92
2022/04/28 00:39:04;;;;;;;5.03;2.35;;;;;;;11.88;44.77;99100.22;5072698;28;20029;-93
2022/04/28 00:41:30;;;;;;;3.83;2.17;;;;;;;11.70;44.80;99049.16;5075932;28;20048;-92
2022/04/28 00:43:57;;;;;;;3.83;2.10;;;;;;;11.82;44.83;99082.59;5076584;28;20047;-93
2022/04/28 00:46:23;;;;;;;4.30;2.10;;;;;;;11.99;44.71;99092.84;5076252;28;20386;-93
2022/04/28 00:51:45;;;;;;;2.80;1.90;;;;;;;11.94;44.55;99076.09;5131749;27;20376;-92
2022/04/28 00:54:11;;;;;;;2.67;1.92;;;;;;;11.92;44.62;99073.47;5131271;27;20138;-92
2022/04/28 00:56:37;;;;;;;3.00;2.08;;;;;;;12.02;44.86;99087.41;5131747;27;20107;-93
2022/04/28 00:59:04;;;;;;;4.45;2.30;;;;;;;12.00;44.70;99089.25;5132465;28;20074;-95
2022/04/28 01:01:29;;;;;;;2.67;1.90;;;;;;;11.99;45.04;99087.50;5131195;27;20130;-92
2022/04/28 01:03:55;;;;;;;3.40;1.90;;;;;;;11.92;45.33;99094.78;5130278;28;20463;-93
2022/04/28 01:06:22;;;;;;;2.30;1.77;;;;;;;11.93;45.78;99090.34;5131609;27;20391;-91
2022/04/28 01:08:49;;;;;;;4.05;1.95;;;;;;;11.95;45.65;99091.19;5128389;28;20123;-90
2022/04/28 01:11:16;;;;;;;3.63;2.10;;;;;;;11.78;46.01;99074.75;5131630;27;20043;-93
2022/04/28 01:13:42;;;;;;;3.30;2.00;;;;;;;11.81;46.45;99094.16;5131457;27;20062;-92
2022/04/28 01:16:08;;;;;;;4.50;2.10;;;;;;;11.77;46.84;99091.63;5131201;28;20038;-93
2022/04/28 01:18:34;;;;;;;3.50;2.05;;;;;;;11.70;47.33;99099.78;5131833;27;20063;-90
2022/04/28 01:21:03;;;;;;;3.88;2.20;;;;;;;11.60;47.42;99087.63;5132223;27;20066;-90
2022/04/28 01:23:30;;;;;;;;;;;;;;;11.58;48.14;99105.44;5127690;28;20550;-92
2022/04/28 01:25:55;;;;;;;3.08;2.00;;;;;;;11.47;48.21;99086.19;5130898;27;20357;-92
2022/04/28 01:28:21;;;;;;;2.75;2.05;;;;;;;11.38;49.00;99089.09;5129684;27;20039;-91
2022/04/28 01:30:47;;;;;;;3.08;2.08;;;;;;;11.35;49.02;99091.84;5130816;27;20860;-92
2022/04/28 01:33:13;;;;;;;3.92;2.40;;;;;;;11.35;49.00;99078.53;5130987;27;20035;-90
2022/04/28 01:35:39;;;;;;;3.30;2.30;;;;;;;11.26;49.60;99077.84;5130887;28;20070;-92
2022/04/28 01:38:06;;;;;;;3.10;2.13;;;;;;;11.27;49.61;99066.25;5132020;27;20039;-90
2022/04/28 01:40:32;;;;;;;3.35;2.22;;;;;;;11.41;49.91;99099.69;5130916;27;20039;-91
2022/04/28 01:42:58;;;;;;;2.85;2.30;;;;;;;11.28;50.25;99075.16;5128474;28;20079;-91
2022/04/28 01:45:23;;;;;;;3.58;2.40;;;;;;;11.33;50.24;99094.53;5131528;27;20074;-93
2022/04/28 01:47:49;;;;;;;4.45;2.15;;;;;;;11.38;50.37;99089.09;5131137;27;20404;-93
2022/04/28 01:50:15;;;;;;;4.47;2.03;;;;;;;11.37;50.96;99098.00;5130530;27;20043;-94
2022/04/28 01:55:34;;;;;;;2.60;2.00;;;;;;;11.25;51.37;99093.84;5127956;27;1348772;-91
2022/04/28 01:58:00;;;;;;;3.25;1.90;;;;;;;11.25;51.49;99078.72;5158475;27;20160;-93
2022/04/28 02:00:26;;;;;;;3.20;2.00;;;;;;;11.28;51.48;99086.66;5156055;27;20043;-92
2022/04/28 02:02:52;;;;;;;2.80;1.88;;;;;;;11.08;52.03;99065.88;5154212;27;20038;-95
2022/04/28 02:05:18;;;;;;;3.88;2.25;;;;;;;11.24;51.71;99086.78;5165348;27;20121;-92
2022/04/28 02:07:44;;;;;;;3.55;2.10;;;;;;;11.22;52.07;99086.81;5163587;27;20068;-93
2022/04/28 02:10:10;;;;;;;3.28;2.08;;;;;;;11.10;52.25;99056.06;5163846;27;20097;-94
2022/04/28 02:12:38;;;;;;;3.70;2.10;;;;;;;11.23;52.63;99080.59;5162152;27;20129;-92
2022/04/28 02:15:04;;;;;;;3.67;2.10;;;;;;;11.38;52.55;99089.09;5163073;27;20472;-94
2022/04/28 02:17:35;;;;;;;3.90;2.10;;;;;;;11.31;52.20;99078.59;5157466;27;20462;-93
2022/04/28 02:20:03;;;;;;;2.58;1.90;;;;;;;11.42;52.27;99104.94;5158287;27;20035;-93
2022/04/28 02:22:29;;;;;;;3.60;2.20;;;;;;;11.35;52.69;99097.16;5162461;27;20037;-93
2022/04/28 02:24:55;;;;;;;3.63;2.10;;;;;;;11.34;52.78;99103.38;5157017;27;20744;-92
2022/04/28 02:27:21;;;;;;;3.85;2.13;;;;;;;11.26;52.51;99088.47;5153764;27;20137;-92
2022/04/28 02:29:48;;;;;;;3.92;1.90;;;;;;;11.38;52.54;99105.06;5159517;27;20126;-92
2022/04/28 02:32:14;;;;;;;3.00;1.88;;;;;;;11.31;52.64;99089.22;5157332;27;20369;-93
2022/04/28 02:34:39;;;;;;;3.40;2.10;;;;;;;11.30;52.50;99075.97;5151723;27;20087;-94
2022/04/28 02:37:05;;;;;;;2.92;2.00;;;;;;;11.34;52.50;99092.72;5162842;27;20094;-92
2022/04/28 02:39:32;;;;;;;2.60;1.88;;;;;;;11.29;53.00;99087.53;5158107;27;20043;-93
2022/04/28 02:41:58;;;;;;;2.95;2.10;;;;;;;11.17;52.94;99072.75;5160192;27;20484;-92
2022/04/28 02:44:24;;;;;;;4.20;2.30;;;;;;;11.19;53.30;99083.34;5158610;27;20030;-93
2022/04/28 02:46:51;;;;;;;2.45;1.90;;;;;;;11.22;53.86;99100.13;5158737;27;20122;-89
2022/04/28 02:49:17;;;;;;;4.38;2.10;;;;;;;11.16;53.61;99084.28;5156948;27;20096;-91
2022/04/28 02:51:43;;;;;;;2.95;2.00;;;;;;;11.23;53.67;99096.56;5160636;27;20043;-91
2022/04/28 02:54:10;;;;;;;3.60;2.20;;;;;;;11.19;53.36;99104.63;5157888;27;20045;-89
2022/04/28 02:56:36;;;;;;;4.20;2.25;;;;;;;11.06;53.95;99102.28;5155403;27;20038;-92
2022/04/28 02:59:02;;;;;;;3.60;2.10;;;;;;;10.98;53.96;99087.41;5156523;27;20027;-91
2022/04/28 03:01:27;;;;;;;3.40;2.10;;;;;;;11.02;54.19;99107.72;5157927;27;20130;-92
2022/04/28 03:03:57;;;;;;;3.13;2.30;;;;;;;10.97;54.38;99113.13;5161071;27;20038;-91
2022/04/28 03:12:08;;;;;;;5.85;2.30;;;;;;;10.68;54.79;99089.84;5129884;28;20558;-90
2022/04/28 03:14:36;;;;;;;3.85;2.40;;;;;;;10.63;55.34;99100.59;5131620;27;20031;-92
2022/04/28 03:17:03;;;;;;;5.28;2.50;;;;;;;10.53;55.26;99087.53;5132643;27;20036;-92
2022/04/28 03:19:28;;;;;;;5.72;3.22;;;;;;;10.54;55.58;99092.84;5130596;27;20484;-92
2022/04/28 03:21:54;;;;;;;4.90;2.60;;;;;;;10.44;56.02;99078.84;5130472;27;20040;-91
2022/04/28 03:24:20;;;;;;;5.47;2.75;;;;;;;10.46;55.66;99082.34;5131521;28;20114;-91
2022/04/28 03:26:48;;;;;;;4.68;2.72;;;;;;;10.58;56.05;99098.94;5130833;27;20134;-93
2022/04/28 03:29:14;;;;;;;3.53;2.40;;;;;;;10.61;55.50;99094.44;5131225;27;20496;-91
2022/04/28 03:31:41;;;;;;;4.32;2.53;;;;;;;10.64;55.46;99091.69;5131335;27;20045;-93
2022/04/28 03:34:07;;;;;;;2.53;2.00;;;;;;;10.64;55.57;99094.34;5131368;27;20122;-92
2022/04/28 03:39:26;;;;;;;4.90;2.20;;;;;;;10.63;55.42;99097.06;5123340;27;20709;-91
2022/04/28 03:41:52;;;;;;;3.38;2.20;;;;;;;10.52;56.21;99089.31;5089301;28;20048;-94
2022/04/28 03:44:18;;;;;;;4.10;2.20;;;;;;;10.70;55.78;99111.97;5094906;28;20106;-91
2022/04/28 03:46:44;;;;;;;3.45;2.38;;;;;;;10.61;56.08;99106.88;5089342;28;20119;-91
2022/04/28 03:49:10;;;;;;;4.72;2.28;;;;;;;10.54;56.97;99107.88;5090357;28;20155;-91
2022/04/28 03:51:35;;;;;;;3.40;2.10;;;;;;;10.46;56.43;99114.25;5089226;28;20066;-92
2022/04/28 03:54:01;;;;;;;3.97;2.28;;;;;;;10.42;56.87;99101.94;5090456;28;20044;-92
2022/04/28 03:56:31;;;;;;;3.90;2.15;;;;;;;10.51;56.19;99129.25;5090555;28;20044;-91
2022/04/28 03:58:57;;;;;;;3.50;2.10;;;;;;;10.53;56.30;99132.75;5090160;28;20490;-92
2022/04/28 04:01:23;;;;;;;3.95;2.15;;;;;;;10.41;56.64;99118.81;5090553;28;20401;-93
2022/04/28 04:03:49;;;;;;;4.60;2.20;;;;;;;10.45;56.48;99131.13;5090910;28;20036;-92
2022/04/28 04:06:15;;;;;;;4.50;2.13;;;;;;;10.43;56.48;99124.97;5085995;28;20063;-94
2022/04/28 04:08:41;;;;;;;4.25;2.33;;;;;;;10.37;56.62;99125.09;5090819;28;20123;-93
2022/04/28 04:11:08;;;;;;;3.65;2.33;;;;;;;10.33;56.62;99128.72;5090500;28;20040;-92
2022/04/28 04:13:35;;;;;;;3.83;2.60;;;;;;;10.40;56.43;99127.66;5089925;28;20634;-91
2022/04/28 04:16:00;;;;;;;3.60;2.40;;;;;;;10.42;56.30;99146.25;5089938;28;20044;-95
2022/04/28 04:18:26;;;;;;;3.67;2.05;;;;;;;10.53;56.27;99146.91;5089811;28;20102;-93
2022/04/28 04:20:52;;;;;;;4.65;2.25;;;;;;;10.39;56.00;99123.28;5089918;28;20600;-93
2022/04/28 04:23:18;;;;;;;3.63;2.25;;;;;;;10.62;55.22;99138.72;5090731;28;20071;-91
2022/04/28 04:25:43;;;;;;;5.35;2.28;;;;;;;10.63;55.24;99131.66;5089081;28;20036;-94
2022/04/28 04:28:09;;;;;;;4.15;2.13;;;;;;;10.62;55.62;99148.50;5089502;28;20033;-91
2022/04/28 04:33:37;;;;;;;3.38;2.30;;;;;;;10.51;56.03;99139.88;5107531;27;20386;-94
2022/04/28 04:36:03;;;;;;;4.88;2.38;;;;;;;10.52;55.65;99133.63;5092862;28;20044;-92
2022/04/28 04:38:29;;;;;;;3.70;2.20;;;;;;;10.60;55.97;99131.69;5095836;28;20064;-92
2022/04/28 04:40:55;;;;;;;3.72;2.13;;;;;;;10.64;55.49;99128.06;5094852;28;20056;-92
2022/04/28 04:43:21;;;;;;;4.28;2.50;;;;;;;10.66;55.63;99134.22;5092570;28;20074;-93
2022/04/28 04:45:47;;;;;;;3.88;2.60;;;;;;;10.69;55.39;99128.81;5097554;28;20163;-91
2022/04/28 04:48:13;;;;;;;3.72;2.35;;;;;;;10.73;55.23;99124.31;5095025;28;20040;-92
2022/04/28 04:50:40;;;;;;;4.22;2.60;;;;;;;10.77;55.50;99129.53;5091655;28;20459;-92
2022/04/28 04:53:06;;;;;;;3.50;2.33;;;;;;;10.72;55.17;99123.47;5087509;28;20035;-90
2022/04/28 04:55:32;;;;;;;5.25;2.53;;;;;;;10.83;54.58;99137.38;5095600;28;20052;-92
2022/04/28 04:57:58;;;;;;;3.40;2.30;;;;;;;10.86;55.10;99131.13;5094451;28;20089;-94
2022/04/28 05:00:24;;;;;;;3.97;2.58;;;;;;;10.94;54.39;99142.47;5091484;28;20089;-91
2022/04/28 05:02:50;;;;;;;5.18;3.00;;;;;;;10.92;54.71;99140.75;5099828;28;20078;-90
2022/04/28 05:05:15;;;;;;;4.00;2.55;;;;;;;10.87;54.75;99128.44;5095688;28;20094;-89
2022/04/28 05:07:43;;;;;;;4.60;2.80;;;;;;;10.93;54.82;99140.75;5090854;28;20064;-90
2022/04/28 05:10:09;;;;;;;4.93;2.72;;;;;;;10.97;54.61;99137.06;5094300;28;20060;-92
2022/04/28 05:12:36;;;;;;;5.47;3.10;;;;;;;10.95;54.55;99125.63;5092087;28;20037;-92
2022/04/28 05:15:02;;;;;;;4.30;2.92;;;;;;;11.16;54.15;99142.84;5094789;28;20036;-92
2022/04/28 05:17:28;;;;;;;5.20;3.03;;;;;;;11.24;54.30;99150.66;5097299;28;20036;-93
2022/04/28 05:19:57;;;;;;;5.05;3.15;;;;;;;11.22;53.51;99129.41;5096113;28;20097;-90
2022/04/28 05:22:23;;;;;;;5.80;3.63;;;;;;;11.47;53.01;99136.78;5093000;28;20040;-92
2022/04/28 05:24:50;;;;;;;6.60;3.83;;;;;;;11.66;51.76;99122.09;5093682;28;20093;-90
2022/04/28 05:27:17;;;;;;;7.28;3.58;;;;;;;12.02;51.45;99131.88;5092343;28;20036;-90
2022/04/28 05:29:42;;;;;;;6.30;3.72;;;;;;;11.90;50.83;99107.25;5097201;28;20048;-92
2022/04/28 05:32:09;;;;;;;6.15;3.80;;;;;;;12.20;50.97;99133.13;5099855;28;20068;-92
2022/04/28 05:34:35;;;;;;;7.28;3.63;;;;;;;12.26;50.72;99141.84;5098251;28;20082;-93
2022/04/28 05:37:01;;;;;;;5.68;4.00;;;;;;;12.21;50.66;99121.53;5093956;28;20502;-94
2022/04/28 05:39:28;;;;;;;8.25;4.13;;;;;;;12.21;50.56;99137.53;5095593;28;20036;-92
2022/04/28 05:41:56;;;;;;;7.55;4.38;;;;;;;12.14;50.40;99128.84;5097017;28;20036;-92
2022/04/28 05:47:16;;;;;;;5.72;3.88;;;;;;;12.52;49.58;99146.44;5102962;27;20904;-92
2022/04/28 05:49:42;;;;;;;6.28;3.88;;;;;;;12.60;49.55;99142.66;5068815;28;20045;-92
2022/04/28 05:52:08;;;;;;;7.15;4.15;;;;;;;12.65;49.29;99144.28;5070276;28;20048;-91
2022/04/28 05:54:36;;;;;;;6.35;4.13;;;;;;;12.77;49.05;99153.69;5070263;28;20094;-91
2022/04/28 05:57:02;;;;;;;7.88;4.70;;;;;;;12.95;48.06;99157.63;5070552;28;20118;-91
2022/04/28 05:59:28;;;;;;;6.57;4.50;;;;;;;12.87;48.63;99135.63;5071962;28;20132;-92
2022/04/28 06:01:54;;;;;;;6.15;4.28;;;;;;;13.02;48.42;99159.19;5070280;28;20060;-92
2022/04/28 06:04:21;;;;;;;6.07;4.30;;;;;;;13.05;47.94;99159.06;5070090;28;20063;-93
2022/04/28 06:06:47;;;;;;;9.38;4.82;;;;;;;13.07;47.59;99170.59;5071045;28;20037;-93
2022/04/28 06:09:12;;;;;;;8.68;5.18;;;;;;;12.97;47.13;99141.56;5070708;28;20127;-93
2022/04/28 06:11:38;;;;;;;9.60;5.57;;;;;;;13.15;47.83;99173.03;5070190;28;20041;-92
2022/04/28 06:14:04;;;;;;;7.85;5.00;;;;;;;13.15;47.58;99163.22;5070798;28;20045;-91
2022/04/28 06:16:30;;;;;;;7.55;5.07;;;;;;;13.01;47.87;99153.88;5071123;28;20051;-94
2022/04/28 06:18:55;;;;;;;7.45;5.13;;;;;;;13.18;49.02;99169.38;5069244;28;20039;-94
2022/04/28 06:21:23;;;;;;;8.82;5.30;;;;;;;13.24;47.28;99154.03;5070321;28;20049;-92
2022/04/28 06:23:48;;;;;;;8.07;5.50;;;;;;;13.46;46.75;99140.03;5069955;28;20041;-93
2022/04/28 06:26:14;;;;;;;11.02;5.90;;;;;;;13.69;46.58;99172.22;5070123;28;20059;-93
2022/04/28 06:28:40;;;;;;;9.02;5.32;;;;;;;13.62;46.77;99151.97;5070357;28;21293;-91
2022/04/28 06:31:06;;;;;;;7.88;5.57;;;;;;;13.97;46.88;99160.59;5069944;28;20064;-94
2022/04/28 06:33:32;;;;;;;8.00;5.25;;;;;;;14.00;45.92;99157.78;5069446;28;20127;-93
2022/04/28 06:35:58;;;;;;;8.38;5.30;;;;;;;14.13;46.32;99169.81;5069716;28;20119;-94
2022/04/28 06:38:25;;;;;;;8.00;5.57;;;;;;;14.10;46.16;99156.56;5070295;28;20132;-94
2022/04/28 06:40:51;;;;;;;9.82;6.07;;;;;;;14.32;44.80;99147.75;5069774;28;20147;-93
2022/04/28 06:43:18;;;;;;;9.10;5.53;;;;;;;14.24;45.48;99150.69;5069759;28;20135;-94
2022/04/28 06:46:11;;;;;;;9.43;6.25;;;;;;;14.23;46.56;99157.00;5070252;28;20056;-93
2022/04/28 06:48:29;;;;;;;9.95;5.57;;;;;;;14.48;46.15;99156.97;5069269;28;20064;-92
2022/04/28 06:50:55;;;;;;;9.20;6.28;;;;;;;14.73;45.01;99150.75;5070264;28;20068;-94
2022/04/28 06:53:21;;;;;;;9.25;6.10;;;;;;;14.87;44.34;99144.84;5069689;28;20037;-93
2022/04/28 06:55:48;;;;;;;8.68;6.07;;;;;;;15.09;43.94;99132.34;5068972;28;20060;-92
2022/04/28 06:58:15;;;;;;;8.13;5.85;;;;;;;15.31;44.99;99137.75;5058649;28;20164;-92
2022/04/28 07:00:40;;;;;;;9.60;6.38;;;;;;;15.31;43.45;99134.19;5056208;28;20033;-94
2022/04/28 07:03:06;;;;;;;10.80;6.78;;;;;;;15.59;43.62;99150.00;5056288;28;20039;-93
2022/04/28 07:05:33;;;;;;;10.10;6.25;;;;;;;15.53;41.74;99132.38;5056393;28;20029;-92
2022/04/28 07:07:58;;;;;;;8.52;5.80;;;;;;;15.43;42.74;99148.91;5057862;28;20041;-92
2022/04/28 07:10:24;;;;;;;10.18;5.90;;;;;;;15.53;43.14;99144.91;5056956;28;20052;-93
2022/04/28 07:12:51;;;;;;;8.45;6.00;;;;;;;15.53;42.41;99155.63;5055989;28;20036;-92
2022/04/28 07:15:17;;;;;;;9.00;6.50;;;;;;;15.48;43.19;99154.94;5055516;28;20570;-93
2022/04/28 07:17:43;;;;;;;8.73;5.82;;;;;;;15.44;43.28;99145.28;5055928;28;20127;-91
2022/04/28 07:20:09;;;;;;;9.38;6.32;;;;;;;15.38;42.29;99138.38;5055588;28;20045;-91
2022/04/28 07:22:35;;;;;;;11.73;6.75;;;;;;;15.48;42.14;99152.25;5055635;28;20033;-89
2022/04/28 07:25:02;;;;;;;9.07;6.03;;;;;;;15.63;42.34;99127.50;5055054;28;20044;-90
2022/04/28 07:27:28;;;;;;;10.90;6.05;;;;;;;15.91;41.77;99156.72;5055486;28;20053;-90
2022/04/28 07:29:55;;;;;;;8.35;6.20;;;;;;;16.01;40.47;99141.13;5055365;28;20052;-91
2022/04/28 07:32:21;;;;;;;9.02;6.30;;;;;;;15.87;39.81;99138.16;5055713;28;20106;-91
2022/04/28 07:34:46;;;;;;;10.20;6.20;;;;;;;16.01;39.40;99138.44;5055579;28;20491;-89
2022/04/28 07:37:12;;;;;;;8.40;5.80;;;;;;;16.12;39.66;99138.84;5054907;28;20057;-91
2022/04/28 07:39:38;;;;;;;8.10;5.75;;;;;;;15.87;39.59;99140.84;5055342;28;20049;-91
2022/04/28 07:42:04;;;;;;;8.70;5.63;;;;;;;16.09;39.17;99149.72;5055135;28;20099;-92
2022/04/28 07:44:29;;;;;;;8.27;5.05;;;;;;;16.59;38.59;99141.22;5054698;28;20127;-91
2022/04/28 07:46:57;;;;;;;7.65;4.85;;;;;;;16.94;35.82;99129.81;5054470;28;20064;-92
2022/04/28 07:49:22;;;;;;;6.47;4.18;;;;;;;16.78;33.85;99137.66;5055188;28;20040;-93
2022/04/28 07:51:48;;;;;;;8.32;5.32;;;;;;;16.91;34.36;99125.44;5054610;28;20090;-90
2022/04/28 07:54:17;;;;;;;9.50;4.95;;;;;;;17.17;34.14;99134.06;5056191;28;20514;-92
2022/04/28 07:56:44;;;;;;;7.10;4.30;;;;;;;17.16;33.07;99148.47;5054822;28;20086;-92
2022/04/28 07:59:10;;;;;;;7.15;3.97;;;;;;;17.34;32.12;99144.00;5055742;28;20041;-91
2022/04/28 08:01:36;;;;;;;6.60;4.40;;;;;;;17.28;31.84;99147.84;5056617;28;20048;-92
2022/04/28 08:04:04;;;;;;;6.90;3.90;;;;;;;17.30;32.44;99118.22;5055242;28;20516;-91
2022/04/28 08:06:30;;;;;;;7.70;4.18;;;;;;;17.50;32.49;99128.88;5055574;28;20048;-93
2022/04/28 08:08:56;;;;;;;6.32;4.30;;;;;;;17.53;31.45;99126.03;5054677;28;20041;-94
2022/04/28 08:11:21;;;;;;;7.72;4.15;;;;;;;17.59;31.13;99144.56;5055798;28;21340;-90
2022/04/28 08:13:48;;;;;;;7.90;4.95;;;;;;;17.71;31.68;99169.09;5055882;28;20094;-92
2022/04/28 08:16:14;;;;;;;7.82;4.35;;;;;;;17.20;32.07;99150.06;5056010;28;20471;-94
2022/04/28 08:18:40;;;;;;;7.22;4.30;;;;;;;17.49;31.93;99134.31;5054987;28;20063;-92
2022/04/28 08:21:08;;;;;;;7.18;4.10;;;;;;;17.94;31.27;99141.94;5054904;28;20053;-92
2022/04/28 08:23:35;;;;;;;5.10;3.92;;;;;;;18.16;30.55;99152.44;5054579;28;20044;-93
2022/04/28 08:26:01;;;;;;;8.27;3.80;;;;;;;17.59;31.57;99154.44;5055200;28;20040;-90
2022/04/28 08:28:27;;;;;;;9.35;3.60;;;;;;;17.81;31.49;99144.34;5055034;28;20594;-93
2022/04/28 08:30:53;;;;;;;5.90;3.78;;;;;;;18.13;31.88;99146.34;5054960;28;20040;-92
2022/04/28 08:33:19;;;;;;;6.20;4.10;;;;;;;17.99;32.49;99160.53;5055188;28;20442;-93
2022/04/28 08:35:45;;;;;;;6.57;3.67;;;;;;;18.11;32.28;99127.59;5054820;28;20087;-92
2022/04/28 08:38:12;;;;;;;8.15;4.18;;;;;;;18.21;32.84;99144.13;5055273;28;20049;-93
2022/04/28 08:40:40;;;;;;;7.45;3.95;;;;;;;18.36;32.61;99142.44;5054740;28;20073;-95
2022/04/28 08:43:06;;;;;;;6.85;3.80;;;;;;;18.37;32.41;99138.81;5054889;28;20051;-92
2022/04/28 08:45:38;;;;;;;8.45;3.58;;;;;;;18.41;32.78;99180.75;5054226;28;20131;-94
2022/04/28 08:48:07;;;;;;;6.63;4.18;;;;;;;18.26;33.13;99175.25;5055421;28;20075;-94
2022/04/28 08:50:33;;;;;;;7.75;4.28;;;;;;;18.19;32.93;99127.19;5056257;28;20072;-93
2022/04/28 08:53:00;;;;;;;6.75;3.65;;;;;;;18.70;33.13;99157.69;5058166;28;20041;-93
2022/04/28 08:55:28;;;;;;;7.95;4.13;;;;;;;18.85;33.33;99137.16;5055946;28;20045;-94
2022/04/28 08:57:54;;;;;;;8.30;4.47;;;;;;;18.61;32.70;99145.59;5056134;28;20037;-90
2022/04/28 09:00:20;;;;;;;5.97;3.95;;;;;;;18.31;32.69;99141.84;5054980;28;20047;-94
2022/04/28 09:02:45;;;;;;;7.50;4.47;;;;;;;18.61;32.90;99148.28;5055069;28;20037;-91
2022/04/28 09:05:11;;;;;;;6.57;4.20;;;;;;;18.54;32.75;99159.44;5054591;28;20056;-93
2022/04/28 09:07:39;;;;;;;5.90;4.10;;;;;;;18.31;33.82;99136.44;5054707;28;20521;-95
2022/04/28 09:10:24;;;;;;;8.43;4.50;;;;;;;18.88;35.00;99185.47;5054141;28;20064;-93
2022/04/28 09:12:57;;;;;;;5.03;3.75;;;;;;;18.52;34.16;99148.78;5054262;28;20482;-93
2022/04/28 09:15:23;;;;;;;6.97;3.80;;;;;;;18.62;34.34;99158.06;5054037;28;20132;-93
2022/04/28 09:17:49;;;;;;;8.13;3.78;;;;;;;19.01;34.09;99164.13;5055603;28;20132;-95
2022/04/28 09:20:15;;;;;;;5.68;3.70;;;;;;;19.07;33.56;99140.38;5055439;28;20391;-92
2022/04/28 09:22:42;;;;;;;6.07;3.75;;;;;;;18.78;33.07;99171.66;5055167;28;20045;-92
2022/04/28 09:25:10;;;;;;;5.45;3.83;;;;;;;18.82;32.39;99162.44;5055589;28;20076;-93
2022/04/28 09:27:35;;;;;;;5.88;3.65;;;;;;;18.75;33.21;99169.06;5054311;28;20041;-94
2022/04/28 09:30:04;;;;;;;8.48;4.32;;;;;;;18.73;33.34;99162.03;5055494;28;20063;-91
2022/04/28 09:32:30;;;;;;;5.35;3.70;;;;;;;18.99;32.29;99155.25;5054468;28;20078;-92
2022/04/28 09:35:06;;;;;;;5.80;3.80;;;;;;;18.74;33.14;99185.34;5055646;28;20495;-92
2022/04/28 09:37:32;;;;;;;5.78;3.72;;;;;;;18.68;34.38;99168.53;5043047;28;20040;-93
2022/04/28 09:43:02;;;;;;;8.10;4.45;;;;;;;18.74;34.00;99174.56;5149390;27;20376;-93
2022/04/28 09:45:28;;;;;;;6.43;4.20;;;;;;;19.13;33.95;99181.41;5143139;27;20061;-93
2022/04/28 09:47:59;;;;;;;7.63;4.82;;;;;;;19.11;33.42;99151.88;5139344;27;20043;-96
2022/04/28 09:50:26;;;;;;;7.20;4.38;;;;;;;19.09;34.21;99154.66;5134838;27;20071;-93
2022/04/28 09:52:54;;;;;;;8.30;4.43;;;;;;;18.79;34.92;99169.81;5134678;27;20048;-91
2022/04/28 09:55:22;;;;;;;7.05;4.43;;;;;;;19.05;35.26;99158.47;5138087;27;20054;-91
2022/04/28 09:57:48;;;;;;;7.97;5.20;;;;;;;18.65;34.96;99160.63;5141087;27;20057;-91
2022/04/28 10:00:16;;;;;;;8.00;4.47;;;;;;;18.95;35.55;99176.09;5145213;27;20043;-91
2022/04/28 10:02:42;;;;;;;8.93;4.65;;;;;;;18.84;33.71;99194.69;5138021;27;20043;-91
2022/04/28 10:05:08;;;;;;;6.95;4.05;;;;;;;18.71;33.45;99161.22;5135443;27;20039;-91
2022/04/28 10:07:36;;;;;;;7.72;4.45;;;;;;;18.74;34.34;99148.47;5139826;27;20108;-92
2022/04/28 10:10:03;;;;;;;6.47;4.03;;;;;;;18.77;35.55;99163.59;5133020;27;20031;-91
2022/04/28 10:12:29;;;;;;;7.45;4.93;;;;;;;18.82;35.54;99145.38;5140933;27;20039;-93
2022/04/28 10:14:56;;;;;;;8.63;4.35;;;;;;;18.94;34.64;99158.19;5138685;27;20586;-92
2022/04/28 10:17:28;;;;;;;7.03;4.93;;;;;;;18.76;35.03;99168.13;5134224;27;20043;-90
2022/04/28 10:19:58;;;;;;;6.72;4.60;;;;;;;18.43;36.66;99151.94;5140953;27;20053;-92
2022/04/28 10:22:29;;;;;;;7.32;4.93;;;;;;;18.73;35.63;99151.25;5137977;27;20111;-95
2022/04/28 10:34:10;;;;;;;7.03;4.43;;;;;;;19.04;33.90;99123.50;5134070;27;20383;-92
2022/04/28 10:36:51;;;;;;;8.00;4.90;;;;;;;18.77;32.97;99120.50;5133691;27;20066;-95
2022/04/28 10:39:33;;;;;;;8.25;4.53;;;;;;;18.76;34.06;99148.38;5116725;28;20035;-95
2022/04/28 10:41:59;;;;;;;6.47;4.70;;;;;;;18.75;34.64;99125.09;5131785;28;20080;-94
2022/04/28 10:44:29;;;;;;;5.68;4.53;;;;;;;19.13;33.83;99140.97;5136117;27;20078;-94
2022/04/28 10:46:57;;;;;;;7.55;4.88;;;;;;;19.20;34.64;99123.53;5136457;27;20122;-95
2022/04/28 10:49:25;;;;;;;6.13;4.57;;;;;;;18.76;35.24;99134.91;5134507;27;20055;-93
2022/04/28 10:51:56;;;;;;;8.80;4.75;;;;;;;18.96;35.19;99137.41;5135738;27;20043;-94
2022/04/28 10:54:23;;;;;;;7.43;4.80;;;;;;;18.98;35.62;99115.78;5134661;27;20040;-93
2022/04/28 10:56:55;;;;;;;11.57;5.47;;;;;;;18.74;35.89;99126.06;5133295;27;20036;-91
2022/04/28 10:59:37;;;;;;;7.22;4.80;;;;;;;19.04;35.70;99135.19;5133196;27;20031;-94
2022/04/28 11:02:49;;;;;;;8.57;4.72;;;;;;;19.35;35.81;99119.94;5136056;27;20038;-93
2022/04/28 11:05:40;;;;;;;8.93;5.32;;;;;;;19.15;34.81;99121.09;5134220;28;20027;-92
2022/04/28 11:08:23;;;;;;;7.82;4.93;;;;;;;18.95;35.65;99114.09;5132750;28;20047;-95
2022/04/28 11:11:04;;;;;;;7.63;4.68;;;;;;;19.16;35.96;99119.25;5132908;28;20036;-94
2022/04/28 11:13:31;;;;;;;7.40;5.18;;;;;;;19.22;36.70;99116.22;5133295;27;20484;-94
2022/04/28 11:15:59;;;;;;;7.63;4.70;;;;;;;19.24;36.06;99115.16;5133278;27;20489;-93
2022/04/28 11:18:26;;;;;;;7.22;4.72;;;;;;;19.30;34.99;99095.09;5134713;27;20043;-94
2022/04/28 11:20:59;;;;;;;8.00;4.68;;;;;;;19.15;36.91;99093.25;5134375;27;20400;-94
2022/04/28 11:23:24;;;;;;;6.57;4.70;;;;;;;19.11;35.83;99097.09;5134753;27;20077;-95
2022/04/28 11:25:50;;;;;;;9.02;5.53;;;;;;;19.23;36.01;99101.75;5133232;27;20043;-92
2022/04/28 11:28:16;;;;;;;9.15;5.53;;;;;;;18.95;34.46;99119.50;5133481;27;20062;-92
2022/04/28 11:30:42;;;;;;;6.30;4.57;;;;;;;19.08;34.41;99103.50;5131952;27;20039;-94
2022/04/28 11:33:10;;;;;;;7.57;5.15;;;;;;;19.06;34.42;99121.59;5134002;27;20055;-92
2022/04/28 11:35:39;;;;;;;7.90;5.07;;;;;;;18.95;35.77;99124.03;5133243;27;20063;-93
2022/04/28 11:38:07;;;;;;;9.95;5.38;;;;;;;19.26;34.49;99105.16;5131996;28;20043;-95
2022/04/28 11:40:35;;;;;;;9.53;5.07;;;;;;;19.26;34.50;99113.25;5134082;27;20071;-93
2022/04/28 11:43:02;;;;;;;9.43;4.70;;;;;;;19.20;34.22;99100.13;5133697;27;20035;-94
2022/04/28 11:45:31;;;;;;;8.27;5.10;;;;;;;19.39;34.52;99097.25;5121135;28;20046;-93
2022/04/28 11:47:59;;;;;;;8.25;4.93;;;;;;;19.37;33.73;99088.38;5119910;28;20123;-92
2022/04/28 11:50:30;;;;;;;8.00;4.30;;;;;;;19.03;34.23;99084.03;5119042;28;20122;-94
2022/04/28 11:53:00;;;;;;;8.15;5.10;;;;;;;18.91;33.69;99111.66;5120091;28;20071;-94
2022/04/28 11:55:30;;;;;;;7.90;4.72;;;;;;;19.24;34.58;99108.91;5119621;28;20051;-92
2022/04/28 11:57:56;;;;;;;6.78;4.20;;;;;;;19.16;33.76;99090.47;5119037;28;20511;-94
2022/04/28 12:00:25;;;;;;;6.63;4.70;;;;;;;19.26;33.41;99101.59;5118475;28;20039;-94
2022/04/28 12:02:52;;;;;;;6.78;4.90;;;;;;;19.37;34.11;99096.47;5117942;28;20372;-93
2022/04/28 12:05:21;;;;;;;5.97;4.57;;;;;;;19.50;33.64;99127.16;5118790;28;20558;-94